Time;durP1;ratioP1;P1;durP2;ratioP2;P2;SDS_P1;SDS_P2;PMS_P1;PMS_P2;Temp;Humidity;BMP_temperature;BMP_pressure;BME280_temperature;BME280_humidity;BME280_pressure;Samples;Min_cycle;Max_cycle;Signal;HPM_P1;HPM_P2
2021/03/27 00:02:23;;;;;;;17.92;12.63;;;;;;;9.97;46.66;97731.00;10134202;29;20040;-79
2021/03/27 00:08:03;;;;;;;23.50;14.23;;;;;;;9.90;48.16;97729.09;10127797;29;20107;-79
2021/03/27 00:14:03;;;;;;;20.70;13.05;;;;;;;9.90;48.25;97712.38;10167911;29;20040;-79
2021/03/27 00:19:37;;;;;;;20.70;13.13;;;;;;;9.92;48.52;97706.94;10143872;29;20061;-79
2021/03/27 00:25:12;;;;;;;21.23;13.03;;;;;;;9.89;48.43;97705.34;10142394;29;20044;-79
2021/03/27 00:31:03;;;;;;;18.42;12.02;;;;;;;9.89;47.65;97707.38;10142437;29;20103;-79
2021/03/27 00:36:30;;;;;;;20.10;12.52;;;;;;;9.84;47.74;97697.28;10130395;29;20056;-79
2021/03/27 00:42:06;;;;;;;17.40;11.13;;;;;;;9.78;48.78;97697.59;10154668;29;20040;-78
2021/03/27 00:47:30;;;;;;;19.70;11.88;;;;;;;9.74;48.50;97691.72;10155148;29;20067;-79
2021/03/27 00:52:52;;;;;;;18.10;12.40;;;;;;;9.68;49.33;97688.53;10141418;29;20055;-79
2021/03/27 00:58:13;;;;;;;17.52;12.05;;;;;;;9.59;50.35;97692.06;10140832;29;20048;-79
2021/03/27 01:03:40;;;;;;;18.88;10.68;;;;;;;9.49;48.90;97677.44;10127521;29;20040;-79
2021/03/27 01:09:00;;;;;;;18.52;11.82;;;;;;;9.36;48.97;97673.78;10127223;29;20048;-79
2021/03/27 01:14:51;;;;;;;18.65;12.25;;;;;;;9.28;49.72;97669.69;10147151;29;20511;-78
2021/03/27 01:20:46;;;;;;;18.50;11.27;;;;;;;9.20;50.71;97669.13;10131303;29;20484;-79
2021/03/27 01:26:19;;;;;;;19.48;11.77;;;;;;;9.12;50.54;97660.91;10154408;29;20059;-78
2021/03/27 01:31:52;;;;;;;18.88;11.82;;;;;;;9.11;50.44;97662.22;10152223;29;20048;-78
2021/03/27 01:37:19;;;;;;;18.88;11.00;;;;;;;9.06;50.47;97655.63;10154342;29;20056;-79
2021/03/27 01:42:58;;;;;;;20.25;11.57;;;;;;;9.03;50.06;97642.16;10157435;29;20052;-78
2021/03/27 01:48:25;;;;;;;16.85;10.68;;;;;;;8.97;49.79;97645.22;10135429;29;20092;-78
2021/03/27 01:54:13;;;;;;;14.88;10.05;;;;;;;8.92;50.34;97651.09;10162598;29;20051;-78
2021/03/27 01:59:38;;;;;;;16.67;10.75;;;;;;;8.84;50.55;97654.75;10149808;29;20044;-78
2021/03/27 02:05:08;;;;;;;17.15;10.65;;;;;;;8.73;50.99;97640.69;10143743;29;20476;-79
2021/03/27 02:11:02;;;;;;;17.45;10.60;;;;;;;8.64;51.16;97639.38;10129444;29;20071;-79
2021/03/27 02:16:39;;;;;;;16.55;10.35;;;;;;;8.56;50.90;97625.59;10150025;29;20040;-77
2021/03/27 02:22:16;;;;;;;17.58;11.60;;;;;;;8.54;51.63;97624.72;10161420;29;20468;-79
2021/03/27 02:28:11;;;;;;;18.08;9.45;;;;;;;8.46;51.42;97626.91;10135001;29;20058;-77
2021/03/27 02:33:44;;;;;;;;;;;;;;;8.38;51.62;97620.72;10125499;29;20107;-78
2021/03/27 02:39:16;;;;;;;18.52;11.10;;;;;;;8.33;51.67;97625.97;10136576;29;19923;-78
2021/03/27 02:44:43;;;;;;;17.17;10.93;;;;;;;8.33;51.65;97623.19;10150035;29;20555;-78
2021/03/27 02:50:21;;;;;;;16.10;10.65;;;;;;;8.29;51.40;97616.59;10136836;29;20075;-78
2021/03/27 02:56:02;;;;;;;17.52;9.65;;;;;;;8.30;51.61;97615.31;10148957;29;20399;-79
2021/03/27 03:01:32;;;;;;;17.65;9.43;;;;;;;8.37;51.61;97610.94;10176925;29;20048;-78
2021/03/27 03:07:09;;;;;;;15.10;9.32;;;;;;;8.46;51.35;97613.00;10123209;29;20076;-78
2021/03/27 03:12:54;;;;;;;15.00;9.80;;;;;;;8.55;51.18;97607.44;10137654;29;20047;-78
2021/03/27 03:18:41;;;;;;;15.18;9.32;;;;;;;8.58;51.20;97597.91;10151061;29;20051;-78
2021/03/27 03:24:32;;;;;;;15.75;10.38;;;;;;;8.59;50.64;97601.44;10151221;29;20059;-78
2021/03/27 03:30:27;;;;;;;16.60;9.10;;;;;;;8.63;50.66;97601.72;10135888;29;20040;-78
2021/03/27 03:35:55;;;;;;;14.48;8.75;;;;;;;8.73;50.94;97602.47;10165601;29;20519;-78
2021/03/27 03:41:54;;;;;;;14.35;9.23;;;;;;;8.84;50.57;97610.22;10137990;29;20048;-78
2021/03/27 03:47:35;;;;;;;13.55;8.27;;;;;;;8.96;50.60;97606.84;10160617;29;20063;-79
2021/03/27 03:53:27;;;;;;;14.60;9.45;;;;;;;9.05;50.48;97597.75;10187362;29;20484;-78
2021/03/27 03:58:47;;;;;;;13.55;9.10;;;;;;;9.07;50.32;97606.22;10138522;29;20052;-78
2021/03/27 04:04:12;;;;;;;17.23;8.73;;;;;;;9.07;50.22;97595.09;10173475;29;20043;-78
2021/03/27 04:10:09;;;;;;;14.77;8.85;;;;;;;9.00;50.16;97602.31;10147852;29;20111;-79
2021/03/27 04:15:47;;;;;;;16.90;8.27;;;;;;;8.92;50.17;97601.72;10138614;29;20063;-78
2021/03/27 04:21:08;;;;;;;13.05;9.07;;;;;;;8.85;49.94;97603.34;10160153;29;20051;-78
2021/03/27 04:26:49;;;;;;;13.68;8.32;;;;;;;8.79;50.36;97605.69;10160339;29;20044;-78
2021/03/27 04:33:00;;;;;;;13.32;8.77;;;;;;;8.75;50.01;97599.81;10160088;29;20040;-77
2021/03/27 04:38:35;;;;;;;14.95;8.30;;;;;;;8.75;50.09;97605.38;10150164;29;20471;-79
2021/03/27 04:44:48;;;;;;;12.63;7.73;;;;;;;8.79;50.20;97616.81;10171242;29;20051;-76
2021/03/27 04:50:30;;;;;;;13.07;7.53;;;;;;;8.79;49.94;97621.66;10116547;29;20086;-78
2021/03/27 04:56:07;;;;;;;15.82;7.65;;;;;;;8.77;50.35;97613.88;10127369;29;20042;-77
2021/03/27 05:02:08;;;;;;;12.15;7.40;;;;;;;8.84;49.85;97610.22;10147802;29;20103;-78
2021/03/27 05:08:08;;;;;;;14.80;7.75;;;;;;;8.94;49.71;97613.00;10168798;29;20072;-76
2021/03/27 05:13:39;;;;;;;14.00;7.80;;;;;;;9.06;49.60;97627.03;10153816;29;20484;-78
2021/03/27 05:19:26;;;;;;;14.35;8.00;;;;;;;9.16;49.74;97619.41;10143106;29;20045;-76
2021/03/27 05:25:07;;;;;;;13.73;7.50;;;;;;;9.33;49.38;97624.81;10139678;29;20468;-77
2021/03/27 05:31:10;;;;;;;13.52;7.82;;;;;;;9.68;49.13;97621.63;10164520;29;20050;-77
2021/03/27 05:36:54;;;;;;;14.93;7.03;;;;;;;10.35;48.34;97628.97;10161009;29;20056;-78
2021/03/27 05:42:33;;;;;;;11.90;6.45;;;;;;;10.70;47.63;97628.44;10146073;29;20049;-78
2021/03/27 05:48:31;;;;;;;9.90;6.25;;;;;;;10.92;47.42;97624.28;10164326;29;20122;-77
2021/03/27 05:54:13;;;;;;;15.10;7.25;;;;;;;11.33;47.05;97630.38;10135332;29;20519;-77
2021/03/27 05:59:48;;;;;;;11.57;7.10;;;;;;;11.71;44.51;97637.63;10142284;29;20060;-77
2021/03/27 06:05:59;;;;;;;12.73;6.88;;;;;;;12.20;44.46;97643.38;10178245;29;20048;-78
2021/03/27 06:12:08;;;;;;;9.73;6.68;;;;;;;13.81;44.72;97646.09;10164305;29;20048;-78
2021/03/27 06:17:59;;;;;;;12.23;6.90;;;;;;;12.79;43.08;97660.81;10137781;29;20044;-77
2021/03/27 06:23:55;;;;;;;16.00;10.88;;;;;;;12.17;44.11;97653.00;10164436;29;20051;-78
2021/03/27 06:30:04;;;;;;;16.48;9.25;;;;;;;11.93;44.35;97671.84;10143384;29;20044;-78
2021/03/27 06:35:29;;;;;;;13.23;7.65;;;;;;;11.85;44.52;97665.00;10177281;29;20373;-77
2021/03/27 06:40:53;;;;;;;14.40;8.65;;;;;;;11.72;44.51;97661.44;10175960;29;20064;-77
2021/03/27 06:47:06;;;;;;;12.63;7.60;;;;;;;11.53;44.78;97684.00;10149372;29;20449;-76
2021/03/27 06:52:43;;;;;;;13.90;7.30;;;;;;;11.38;44.95;97685.19;10136217;29;20068;-77
2021/03/27 06:58:27;;;;;;;11.40;6.97;;;;;;;11.14;45.04;97703.94;10146634;29;20055;-78
2021/03/27 07:04:24;;;;;;;11.50;7.40;;;;;;;10.93;45.52;97717.19;10137392;29;20048;-77
2021/03/27 07:10:21;;;;;;;13.43;6.57;;;;;;;11.06;46.33;97728.53;10160917;29;20055;-77
2021/03/27 07:16:14;;;;;;;9.07;5.70;;;;;;;11.47;46.79;97736.72;10139585;29;20044;-77
2021/03/27 07:22:22;;;;;;;9.15;5.15;;;;;;;11.74;47.38;97745.47;10136103;29;20048;-75
2021/03/27 07:27:50;;;;;;;9.35;4.90;;;;;;;11.68;49.18;97750.69;10151598;29;20067;-75
2021/03/27 07:33:52;;;;;;;7.07;4.28;;;;;;;11.44;51.73;97761.03;10136673;29;20061;-78
2021/03/27 07:39:45;;;;;;;6.97;4.55;;;;;;;11.07;54.77;97783.06;10152655;29;20500;-74
2021/03/27 07:45:55;;;;;;;5.45;4.18;;;;;;;10.56;57.27;97787.34;10175131;29;20044;-77
2021/03/27 07:51:24;;;;;;;5.82;4.25;;;;;;;10.30;60.86;97794.63;9953499;29;20050;-77
2021/03/27 07:57:54;;;;;;;6.30;3.83;;;;;;;10.37;59.94;97816.03;10147158;29;20056;-77
2021/03/27 08:04:09;;;;;;;6.25;3.95;;;;;;;10.43;58.56;97815.75;10123961;29;20112;-79
2021/03/27 08:10:06;;;;;;;4.78;3.58;;;;;;;10.84;58.67;97828.34;10160983;29;20048;-78
2021/03/27 08:16:24;;;;;;;5.63;3.15;;;;;;;10.88;59.25;97844.63;10140329;29;20059;-77
2021/03/27 08:22:03;;;;;;;4.65;2.72;;;;;;;10.80;60.19;97839.22;10129665;29;20408;-79
2021/03/27 08:28:22;;;;;;;3.40;2.72;;;;;;;11.02;59.99;97865.16;10162285;29;20044;-79
2021/03/27 08:34:00;;;;;;;3.45;2.55;;;;;;;11.54;58.55;97883.94;10142972;29;20063;-79
2021/03/27 08:39:50;;;;;;;3.83;2.00;;;;;;;11.86;57.85;97881.81;10165283;29;20060;-79
2021/03/27 08:45:30;;;;;;;2.78;1.50;;;;;;;11.96;57.29;97890.88;10160815;29;20048;-78
2021/03/27 08:51:12;;;;;;;2.35;1.40;;;;;;;12.01;57.15;97898.19;10167458;29;20560;-79
2021/03/27 08:56:46;;;;;;;2.42;1.40;;;;;;;12.10;56.63;97914.19;10180722;29;20052;-76
2021/03/27 09:02:17;;;;;;;;;;;;;;;16.03;48.66;97891.38;10168913;29;20036;-78
2021/03/27 09:07:49;;;;;;;1.70;1.15;;;;;;;21.03;42.28;97884.56;10165860;29;19934;-78
2021/03/27 09:13:27;;;;;;;1.25;0.80;;;;;;;17.05;42.62;97884.81;10165754;29;20048;-78
2021/03/27 09:19:11;;;;;;;2.20;0.88;;;;;;;15.38;44.61;97885.31;10152817;29;20048;-77
2021/03/27 09:25:10;;;;;;;1.60;0.82;;;;;;;13.64;47.19;97916.56;10169902;29;20485;-78
2021/03/27 09:37:05;;;;;;;1.55;0.73;;;;;;;14.02;47.57;97915.22;10183010;29;20452;-78
2021/03/27 09:42:49;;;;;;;3.70;0.73;;;;;;;14.15;45.57;97914.56;10164847;29;20052;-75
2021/03/27 09:48:41;;;;;;;1.07;0.47;;;;;;;14.01;44.50;97920.13;10172131;29;20020;-78
2021/03/27 09:54:22;;;;;;;2.10;0.47;;;;;;;13.49;44.22;97926.19;10186425;29;20276;-81
2021/03/27 10:00:20;;;;;;;1.50;0.40;;;;;;;13.40;45.05;97915.84;10180632;29;20103;-80
2021/03/27 10:05:53;;;;;;;1.20;0.68;;;;;;;13.54;45.00;97927.19;10174354;29;20047;-81
2021/03/27 10:11:14;;;;;;;1.33;0.52;;;;;;;13.86;44.48;97942.34;10162472;29;20055;-78
2021/03/27 10:16:52;;;;;;;1.00;0.50;;;;;;;14.13;43.67;97958.63;10152546;29;20047;-78
2021/03/27 10:22:50;;;;;;;0.77;0.40;;;;;;;13.26;45.18;97990.72;10152568;29;20044;-77
2021/03/27 10:28:32;;;;;;;2.20;0.88;;;;;;;12.50;47.28;97988.06;10150729;29;20415;-78
2021/03/27 10:34:21;;;;;;;0.80;0.50;;;;;;;12.09;47.66;97993.84;10138343;29;20062;-78
2021/03/27 10:39:58;;;;;;;1.25;0.50;;;;;;;11.87;48.27;97950.41;10181337;29;20052;-84
2021/03/27 10:45:48;;;;;;;1.52;0.60;;;;;;;11.96;49.01;97988.78;10172927;29;20618;-84
2021/03/27 10:51:38;;;;;;;4.03;0.50;;;;;;;12.44;48.93;98008.00;10156326;29;20044;-79
2021/03/27 10:56:57;;;;;;;0.82;0.47;;;;;;;12.10;48.88;98000.91;10164864;29;20552;-79
2021/03/27 11:02:58;;;;;;;1.73;0.63;;;;;;;11.95;49.59;98060.78;10207499;29;20547;-84
2021/03/27 11:09:00;;;;;;;1.90;0.90;;;;;;;12.09;49.47;98047.03;10177082;29;20412;-79
2021/03/27 11:15:18;;;;;;;1.13;0.65;;;;;;;12.19;50.46;98058.16;10154240;29;20074;-78
2021/03/27 11:21:01;;;;;;;2.60;0.47;;;;;;;12.20;49.40;98082.72;10119836;29;20059;-79
2021/03/27 11:26:34;;;;;;;2.20;0.60;;;;;;;12.32;49.06;98097.53;10149409;29;20476;-79
2021/03/27 11:32:11;;;;;;;1.10;0.32;;;;;;;12.84;48.04;98104.38;10150882;29;20064;-80
2021/03/27 11:50:33;;;;;;;0.90;0.30;;;;;;;15.40;38.57;98102.00;11684613;23;20070;-79
2021/03/27 11:56:27;;;;;;;2.22;0.75;;;;;;;16.46;36.06;98104.69;10146044;29;20055;-79
2021/03/27 12:09:36;;;;;;;1.40;0.50;;;;;;;15.70;33.94;98131.78;10100211;29;20069;-81
2021/03/27 12:17:13;;;;;;;1.63;0.30;;;;;;;14.82;35.80;98131.09;10103917;29;20033;-80
2021/03/27 12:31:40;;;;;;;0.95;0.30;;;;;;;15.41;32.23;98145.63;9948039;29;20051;-82
2021/03/27 12:59:11;;;;;;;0.88;0.20;;;;;;;16.69;28.31;98163.66;11533703;23;20068;-80
2021/03/27 13:12:51;;;;;;;0.50;0.10;;;;;;;16.10;27.00;98157.06;10150015;29;20056;-80
2021/03/27 13:18:27;;;;;;;2.53;0.20;;;;;;;15.46;25.81;98167.03;10120054;29;20370;-79
2021/03/27 13:23:58;;;;;;;1.75;0.40;;;;;;;15.01;26.34;98169.41;10129434;29;20047;-79
2021/03/27 13:29:43;;;;;;;1.10;0.28;;;;;;;14.50;27.23;98181.28;10129369;29;20041;-79
2021/03/27 13:35:10;;;;;;;2.17;0.85;;;;;;;14.22;27.31;98168.31;10116689;29;20469;-78
2021/03/27 13:40:32;;;;;;;0.70;0.30;;;;;;;13.75;28.08;98183.03;10131667;29;20057;-83
2021/03/27 13:46:17;;;;;;;1.23;0.50;;;;;;;13.68;28.31;98172.03;10142996;29;20139;-81
2021/03/27 13:51:52;;;;;;;0.93;0.30;;;;;;;14.43;27.33;98176.59;10141001;29;20061;-81
2021/03/27 13:58:02;;;;;;;3.50;0.40;;;;;;;14.76;27.36;98173.63;10741916;23;20028;31
2021/03/27 14:09:57;;;;;;;2.83;0.30;;;;;;;14.33;25.02;98173.19;10082912;29;20051;-81
2021/03/27 14:15:37;;;;;;;0.82;0.25;;;;;;;13.87;25.33;98185.84;10021880;29;20049;-80
2021/03/27 14:21:23;;;;;;;0.63;0.20;;;;;;;13.46;25.98;98197.38;10046057;29;20041;-80
2021/03/27 14:27:17;;;;;;;1.95;0.20;;;;;;;12.99;26.58;98212.50;10058090;29;20454;-79
2021/03/27 14:32:52;;;;;;;0.70;0.30;;;;;;;13.63;26.61;98206.81;10030986;29;20053;-80
2021/03/27 14:38:35;;;;;;;1.15;0.43;;;;;;;13.88;25.77;98212.56;10075469;29;20486;-79
2021/03/27 14:44:24;;;;;;;0.68;0.20;;;;;;;13.58;25.54;98202.28;10100323;29;20078;-82
2021/03/27 14:50:44;;;;;;;0.77;0.20;;;;;;;13.52;24.77;98222.25;10065025;29;20045;-82
2021/03/27 14:56:42;;;;;;;2.83;0.45;;;;;;;13.16;25.75;98237.44;10087608;29;20049;-81
2021/03/27 15:02:35;;;;;;;0.55;0.22;;;;;;;12.94;25.96;98236.72;10077950;29;20045;-81
2021/03/27 15:08:24;;;;;;;2.23;0.27;;;;;;;12.80;26.38;98250.50;10050740;29;20062;-82
2021/03/27 15:14:11;;;;;;;1.17;0.43;;;;;;;12.67;27.29;98275.50;9985530;29;20056;-77
2021/03/27 15:19:42;;;;;;;2.38;0.70;;;;;;;12.55;28.05;98281.03;10001074;29;20050;-80
2021/03/27 15:31:26;;;;;;;2.78;0.82;;;;;;;12.46;28.02;98296.53;9998351;29;20548;-78
2021/03/27 15:37:31;;;;;;;1.60;0.50;;;;;;;12.48;28.92;98312.72;10057217;23;20065;-80
2021/03/27 15:42:52;;;;;;;2.17;0.68;;;;;;;12.18;29.69;98312.09;10088864;29;20049;-79
2021/03/27 15:48:30;;;;;;;1.45;0.40;;;;;;;11.81;29.56;98324.81;10106540;29;20083;-79
2021/03/27 15:54:28;;;;;;;2.05;0.50;;;;;;;11.59;30.91;98341.44;10125120;29;20055;-79
2021/03/27 16:00:26;;;;;;;1.20;0.40;;;;;;;11.54;30.94;98367.59;10128813;29;20044;-78
2021/03/27 16:07:21;;;;;;;8.23;0.30;;;;;;;10.63;33.77;98425.72;10124261;29;20052;-78
2021/03/27 16:13:02;;;;;;;3.05;0.20;;;;;;;9.59;33.86;98455.72;10136807;29;20049;-79
2021/03/27 16:20:26;;;;;;;3.58;0.22;;;;;;;8.95;36.36;98460.09;10136736;29;20052;-78
2021/03/27 16:26:37;;;;;;;0.70;0.20;;;;;;;8.66;37.31;98479.19;10150934;29;20064;-81
2021/03/27 16:38:57;;;;;;;0.73;0.30;;;;;;;7.93;41.21;98493.00;12108233;23;20119;-75
2021/03/27 16:44:41;;;;;;;1.15;0.30;;;;;;;7.69;42.24;98486.72;10134114;29;20128;-74
2021/03/27 16:50:14;;;;;;;0.70;0.20;;;;;;;7.50;48.35;98491.91;10165070;29;20044;-78
2021/03/27 16:56:14;;;;;;;1.25;0.25;;;;;;;7.37;43.19;98461.56;10156841;29;20054;-80
2021/03/27 17:02:26;;;;;;;1.83;0.60;;;;;;;7.37;44.87;98475.44;10154545;29;20068;-80
2021/03/27 17:09:05;;;;;;;1.80;0.70;;;;;;;7.46;48.06;98472.84;10147065;29;20377;-79
2021/03/27 17:14:44;;;;;;;3.28;1.40;;;;;;;7.50;47.20;98480.81;10224638;23;20082;-79
2021/03/27 17:21:35;;;;;;;2.78;1.27;;;;;;;7.43;46.19;98506.53;10164016;29;20455;-79
2021/03/27 17:27:19;;;;;;;1.23;0.30;;;;;;;7.20;50.24;98517.66;10167688;29;20044;-79
2021/03/27 17:34:02;;;;;;;0.75;0.40;;;;;;;6.96;51.13;98509.84;10164670;29;20048;-80
2021/03/27 18:04:19;;;;;;;3.78;1.05;;;;;;;6.23;53.35;98562.63;10781243;23;20079;-79
2021/03/27 18:09:42;;;;;;;1.92;0.65;;;;;;;6.31;52.33;98565.44;10088638;29;20120;-77
2021/03/27 18:15:45;;;;;;;2.90;1.10;;;;;;;6.38;51.55;98561.25;10086644;29;20396;-78
2021/03/27 18:21:14;;;;;;;2.42;0.90;;;;;;;6.52;52.40;98579.97;10117725;29;20122;-80
2021/03/27 18:27:14;;;;;;;3.13;0.82;;;;;;;6.68;51.11;98574.50;10140004;29;20389;-78
2021/03/27 18:32:46;;;;;;;2.72;0.90;;;;;;;6.72;52.31;98574.88;10115255;29;20064;-78
2021/03/27 18:38:09;;;;;;;2.00;0.63;;;;;;;6.62;51.81;98579.47;10124974;29;20044;-78
2021/03/27 18:43:36;;;;;;;1.58;0.50;;;;;;;6.47;53.13;98591.97;10138035;29;20052;-77
2021/03/27 18:49:07;;;;;;;1.52;0.60;;;;;;;6.40;52.01;98611.34;10099128;29;20051;-78
2021/03/27 18:54:27;;;;;;;1.80;0.50;;;;;;;6.41;52.06;98604.50;10085591;29;20053;-78
2021/03/27 18:59:47;;;;;;;2.42;0.60;;;;;;;6.43;52.14;98610.25;10097124;29;20100;-78
2021/03/27 19:05:28;;;;;;;2.25;0.60;;;;;;;6.38;52.19;98591.75;10110248;29;20116;-78
2021/03/27 19:10:48;;;;;;;2.20;0.88;;;;;;;6.35;52.42;98607.44;10097543;29;20048;-77
2021/03/27 19:16:14;;;;;;;1.25;0.70;;;;;;;6.42;52.51;98628.19;10110339;29;20059;-80
2021/03/27 19:22:00;;;;;;;4.18;1.30;;;;;;;6.64;52.98;98643.47;10097411;29;20048;-79
2021/03/27 19:27:41;;;;;;;4.28;1.80;;;;;;;6.73;52.52;98662.38;10110118;29;20051;-79
2021/03/27 19:33:14;;;;;;;4.22;1.55;;;;;;;6.83;52.34;98666.88;10098591;29;20048;-78
2021/03/27 19:38:38;;;;;;;3.67;1.15;;;;;;;6.98;52.51;98699.53;10085089;29;20044;-79
2021/03/27 19:44:35;;;;;;;1.33;0.63;;;;;;;6.80;54.38;98717.94;10081893;29;20052;-78
2021/03/27 19:50:14;;;;;;;1.55;0.30;;;;;;;6.20;55.53;98752.25;10108487;29;20108;-76
2021/03/27 19:55:37;;;;;;;1.73;0.40;;;;;;;5.50;61.41;98759.59;10086180;29;20051;-77
2021/03/27 20:01:12;;;;;;;0.95;0.30;;;;;;;5.07;59.37;98741.38;10096053;29;20040;-79
2021/03/27 20:06:42;;;;;;;0.47;0.10;;;;;;;5.01;58.66;98704.75;10121903;29;20049;-78
2021/03/27 20:12:18;;;;;;;1.10;0.50;;;;;;;4.89;58.39;98709.75;10117687;29;20049;-79
2021/03/27 20:17:41;;;;;;;1.45;0.50;;;;;;;4.74;58.12;98706.81;10122491;29;20055;-78
2021/03/27 20:23:05;;;;;;;0.70;0.20;;;;;;;4.61;60.87;98735.19;10097378;29;20548;-80
2021/03/27 20:28:58;;;;;;;1.20;0.20;;;;;;;4.44;59.15;98729.97;10103843;29;20524;-79
2021/03/27 20:34:29;;;;;;;1.75;0.40;;;;;;;4.37;59.36;98736.13;10130449;29;20060;-81
2021/03/27 20:40:02;;;;;;;0.90;0.30;;;;;;;4.37;59.07;98740.91;10129384;29;20497;-80
2021/03/27 20:45:56;;;;;;;3.13;0.30;;;;;;;4.22;61.21;98755.22;10130219;29;20059;-80
2021/03/27 20:51:55;;;;;;;0.90;0.38;;;;;;;4.05;62.64;98752.72;10943882;23;20031;-78
2021/03/27 21:09:56;;;;;;;1.50;0.45;;;;;;;3.21;64.83;98759.41;10310781;23;20032;31
2021/03/27 21:29:01;;;;;;;1.30;0.45;;;;;;;2.88;65.47;98788.13;10645614;23;20059;-87
2021/03/27 21:34:57;;;;;;;1.20;0.50;;;;;;;2.83;67.97;98803.47;10178420;29;20503;-77
2021/03/27 21:40:27;;;;;;;0.88;0.38;;;;;;;2.82;65.49;98810.25;10168389;29;20052;-75
2021/03/27 21:45:54;;;;;;;2.08;0.60;;;;;;;2.78;67.22;98820.81;10137350;29;20071;-76
2021/03/27 21:51:46;;;;;;;1.38;0.40;;;;;;;2.68;66.93;98833.44;10117723;29;20059;-77
2021/03/27 21:57:17;;;;;;;1.67;0.60;;;;;;;2.66;68.15;98835.22;10112257;29;20408;-76
2021/03/27 22:03:20;;;;;;;2.15;0.90;;;;;;;2.66;67.50;98837.97;10160629;29;20047;-76
2021/03/27 22:09:20;;;;;;;2.28;0.70;;;;;;;2.69;67.99;98839.69;10125180;29;20059;-75
2021/03/27 22:15:01;;;;;;;2.40;0.50;;;;;;;2.69;67.36;98839.69;10138062;29;20059;-75
2021/03/27 22:20:44;;;;;;;1.85;0.65;;;;;;;2.69;68.76;98836.94;10123152;29;20040;-77
2021/03/27 22:26:03;;;;;;;2.00;0.85;;;;;;;2.73;67.53;98835.41;10099212;29;20060;-75
2021/03/27 22:31:37;;;;;;;1.38;0.60;;;;;;;2.83;67.61;98850.34;10111161;29;20413;-76
2021/03/27 22:37:14;;;;;;;1.33;0.50;;;;;;;2.88;67.42;98852.28;10111183;29;20044;-76
2021/03/27 22:42:43;;;;;;;2.45;1.17;;;;;;;2.93;66.75;98864.53;10086584;29;20101;-77
2021/03/27 22:48:13;;;;;;;1.80;0.90;;;;;;;2.83;67.35;98888.22;10097224;29;20051;-76
2021/03/27 22:54:02;;;;;;;2.08;0.90;;;;;;;2.68;67.64;98885.81;10097428;29;20400;-75
2021/03/27 22:59:30;;;;;;;1.88;0.80;;;;;;;2.57;67.91;98903.19;10110067;29;20044;-76
2021/03/27 23:05:06;;;;;;;1.65;0.68;;;;;;;2.58;68.14;98901.94;10086041;24;20061;-76
2021/03/27 23:10:44;;;;;;;3.13;0.82;;;;;;;2.55;68.75;98908.47;10097351;29;20139;-75
2021/03/27 23:16:15;;;;;;;3.03;1.05;;;;;;;2.55;68.21;98913.25;10097744;29;20041;-76
2021/03/27 23:22:19;;;;;;;2.03;0.70;;;;;;;2.52;68.04;98920.53;10096885;29;20041;-76
2021/03/27 23:27:55;;;;;;;2.28;0.65;;;;;;;2.50;68.34;98920.28;10097956;29;20045;-76
2021/03/27 23:33:26;;;;;;;3.22;0.82;;;;;;;2.42;68.99;98915.84;10096718;29;20072;-75
2021/03/27 23:39:25;;;;;;;2.47;0.80;;;;;;;2.40;68.60;98919.09;10096552;29;20052;-75
2021/03/27 23:45:06;;;;;;;2.10;0.90;;;;;;;2.35;68.78;98928.16;10083365;29;20041;-76
2021/03/27 23:50:29;;;;;;;2.70;0.70;;;;;;;2.33;68.51;98929.94;10096142;29;20041;-76
2021/03/27 23:56:12;;;;;;;3.33;0.90;;;;;;;2.35;69.13;98927.41;10082981;29;20058;-76
